sensor_id;sensor_type;location;lat;lon;timestamp;pressure;altitude;pressure_sealevel;temperature;humidity
16355;BME280;8287;51.644;8.494;2023-03-18T00:01:35;99718.16;;;13.57;76.99
16355;BME280;8287;51.644;8.494;2023-03-18T00:04:04;99705.31;;;13.47;78.75
16355;BME280;8287;51.644;8.494;2023-03-18T00:06:30;99708.25;;;13.42;80.08
16355;BME280;8287;51.644;8.494;2023-03-18T00:08:57;99707.78;;;13.40;80.79
16355;BME280;8287;51.644;8.494;2023-03-18T00:11:24;99711.81;;;13.34;80.95
16355;BME280;8287;51.644;8.494;2023-03-18T00:13:51;99704.78;;;13.41;80.40
16355;BME280;8287;51.644;8.494;2023-03-18T00:16:18;99710.06;;;13.53;79.01
16355;BME280;8287;51.644;8.494;2023-03-18T00:18:45;99708.28;;;13.57;78.78
16355;BME280;8287;51.644;8.494;2023-03-18T00:21:13;99723.47;;;13.57;79.17
16355;BME280;8287;51.644;8.494;2023-03-18T00:23:41;99722.63;;;13.53;80.36
16355;BME280;8287;51.644;8.494;2023-03-18T00:26:08;99719.84;;;13.49;80.80
16355;BME280;8287;51.644;8.494;2023-03-18T00:28:35;99726.50;;;13.43;81.62
16355;BME280;8287;51.644;8.494;2023-03-18T00:31:05;99719.91;;;13.25;82.72
16355;BME280;8287;51.644;8.494;2023-03-18T00:33:34;99720.81;;;13.29;82.60
16355;BME280;8287;51.644;8.494;2023-03-18T00:36:00;99720.34;;;13.39;81.38
16355;BME280;8287;51.644;8.494;2023-03-18T00:38:29;99716.13;;;13.38;82.73
16355;BME280;8287;51.644;8.494;2023-03-18T00:40:56;99719.00;;;13.33;83.29
16355;BME280;8287;51.644;8.494;2023-03-18T00:43:36;99717.34;;;13.29;84.40
16355;BME280;8287;51.644;8.494;2023-03-18T00:46:11;99714.81;;;13.32;83.31
16355;BME280;8287;51.644;8.494;2023-03-18T00:48:38;99706.28;;;13.27;84.48
16355;BME280;8287;51.644;8.494;2023-03-18T00:51:04;99715.03;;;13.27;83.97
16355;BME280;8287;51.644;8.494;2023-03-18T00:53:33;99716.03;;;13.35;83.65
16355;BME280;8287;51.644;8.494;2023-03-18T00:55:59;99703.09;;;13.22;84.46
16355;BME280;8287;51.644;8.494;2023-03-18T00:58:26;99702.63;;;13.31;83.95
16355;BME280;8287;51.644;8.494;2023-03-18T01:00:52;99698.31;;;13.27;84.38
16355;BME280;8287;51.644;8.494;2023-03-18T01:03:19;99703.09;;;13.22;85.00
16355;BME280;8287;51.644;8.494;2023-03-18T01:05:50;99696.19;;;13.32;83.68
16355;BME280;8287;51.644;8.494;2023-03-18T01:08:17;99687.97;;;13.25;84.46
16355;BME280;8287;51.644;8.494;2023-03-18T01:10:46;99698.94;;;13.24;83.96
16355;BME280;8287;51.644;8.494;2023-03-18T01:13:12;99696.97;;;13.33;84.22
16355;BME280;8287;51.644;8.494;2023-03-18T01:15:39;99695.97;;;13.25;84.49
16355;BME280;8287;51.644;8.494;2023-03-18T01:18:07;99686.31;;;13.33;84.42
16355;BME280;8287;51.644;8.494;2023-03-18T01:20:36;99688.88;;;13.18;84.95
16355;BME280;8287;51.644;8.494;2023-03-18T01:23:03;99684.47;;;13.22;84.98
16355;BME280;8287;51.644;8.494;2023-03-18T01:25:30;99680.91;;;13.29;84.52
16355;BME280;8287;51.644;8.494;2023-03-18T01:27:59;99682.00;;;13.28;84.52
16355;BME280;8287;51.644;8.494;2023-03-18T01:30:26;99683.19;;;13.31;84.83
16355;BME280;8287;51.644;8.494;2023-03-18T01:32:54;99673.94;;;13.25;85.03
16355;BME280;8287;51.644;8.494;2023-03-18T01:35:21;99683.97;;;13.31;84.45
16355;BME280;8287;51.644;8.494;2023-03-18T01:37:50;99678.09;;;13.38;83.94
16355;BME280;8287;51.644;8.494;2023-03-18T01:40:18;99677.31;;;13.37;83.99
16355;BME280;8287;51.644;8.494;2023-03-18T01:42:47;99670.59;;;13.28;84.17
16355;BME280;8287;51.644;8.494;2023-03-18T01:45:19;99675.56;;;13.29;84.42
16355;BME280;8287;51.644;8.494;2023-03-18T01:47:46;99675.09;;;13.39;83.72
16355;BME280;8287;51.644;8.494;2023-03-18T01:50:15;99673.75;;;13.45;83.19
16355;BME280;8287;51.644;8.494;2023-03-18T01:52:44;99672.63;;;13.46;83.15
16355;BME280;8287;51.644;8.494;2023-03-18T01:55:16;99679.16;;;13.49;83.04
16355;BME280;8287;51.644;8.494;2023-03-18T01:57:44;99675.94;;;13.55;82.69
16355;BME280;8287;51.644;8.494;2023-03-18T02:00:11;99670.13;;;13.53;82.69
16355;BME280;8287;51.644;8.494;2023-03-18T02:02:43;99663.38;;;13.56;82.39
16355;BME280;8287;51.644;8.494;2023-03-18T02:05:12;99670.34;;;13.60;82.11
16355;BME280;8287;51.644;8.494;2023-03-18T02:07:41;99664.00;;;13.65;82.27
16355;BME280;8287;51.644;8.494;2023-03-18T02:10:11;99663.34;;;13.68;82.19
16355;BME280;8287;51.644;8.494;2023-03-18T02:12:41;99669.88;;;13.70;81.92
16355;BME280;8287;51.644;8.494;2023-03-18T02:15:12;99671.41;;;13.71;81.62
16355;BME280;8287;51.644;8.494;2023-03-18T02:17:45;99671.06;;;13.73;81.27
16355;BME280;8287;51.644;8.494;2023-03-18T02:20:19;99664.06;;;13.80;81.23
16355;BME280;8287;51.644;8.494;2023-03-18T02:22:53;99663.47;;;13.87;80.92
16355;BME280;8287;51.644;8.494;2023-03-18T02:25:30;99665.25;;;13.83;80.85
16355;BME280;8287;51.644;8.494;2023-03-18T02:28:03;99671.88;;;13.89;80.85
16355;BME280;8287;51.644;8.494;2023-03-18T02:30:36;99664.31;;;13.91;80.52
16355;BME280;8287;51.644;8.494;2023-03-18T02:33:04;99664.84;;;13.96;80.20
16355;BME280;8287;51.644;8.494;2023-03-18T02:35:31;99661.22;;;13.89;80.52
16355;BME280;8287;51.644;8.494;2023-03-18T02:37:59;99674.47;;;14.01;79.86
16355;BME280;8287;51.644;8.494;2023-03-18T02:40:28;99674.63;;;13.92;80.37
16355;BME280;8287;51.644;8.494;2023-03-18T02:42:55;99671.47;;;14.02;80.23
16355;BME280;8287;51.644;8.494;2023-03-18T02:45:37;99677.47;;;13.99;79.77
16355;BME280;8287;51.644;8.494;2023-03-18T02:48:10;99671.47;;;14.02;80.00
16355;BME280;8287;51.644;8.494;2023-03-18T02:50:39;99685.13;;;14.01;80.00
16355;BME280;8287;51.644;8.494;2023-03-18T02:53:06;99691.31;;;14.05;80.09
16355;BME280;8287;51.644;8.494;2023-03-18T02:55:32;99690.19;;;14.06;80.16
16355;BME280;8287;51.644;8.494;2023-03-18T02:57:59;99683.41;;;14.08;79.65
16355;BME280;8287;51.644;8.494;2023-03-18T03:00:26;99681.63;;;14.12;80.06
16355;BME280;8287;51.644;8.494;2023-03-18T03:02:54;99682.94;;;14.18;79.83
16355;BME280;8287;51.644;8.494;2023-03-18T03:05:21;99679.03;;;14.16;79.59
16355;BME280;8287;51.644;8.494;2023-03-18T03:07:47;99680.41;;;14.10;80.67
16355;BME280;8287;51.644;8.494;2023-03-18T03:10:14;99680.28;;;14.18;80.63
16355;BME280;8287;51.644;8.494;2023-03-18T03:12:41;99666.28;;;14.21;80.24
16355;BME280;8287;51.644;8.494;2023-03-18T03:15:08;99674.88;;;14.30;79.89
16355;BME280;8287;51.644;8.494;2023-03-18T03:17:35;99690.34;;;14.25;79.83
16355;BME280;8287;51.644;8.494;2023-03-18T03:20:04;99678.72;;;14.17;79.91
16355;BME280;8287;51.644;8.494;2023-03-18T03:22:31;99692.66;;;14.26;79.94
16355;BME280;8287;51.644;8.494;2023-03-18T03:24:58;99686.66;;;14.29;79.87
16355;BME280;8287;51.644;8.494;2023-03-18T03:27:25;99684.41;;;14.31;79.36
16355;BME280;8287;51.644;8.494;2023-03-18T03:29:52;99683.72;;;14.34;79.30
16355;BME280;8287;51.644;8.494;2023-03-18T03:32:19;99690.16;;;14.33;79.62
16355;BME280;8287;51.644;8.494;2023-03-18T03:34:46;99688.97;;;14.31;79.11
16355;BME280;8287;51.644;8.494;2023-03-18T03:37:15;99679.75;;;14.28;79.33
16355;BME280;8287;51.644;8.494;2023-03-18T03:39:42;99686.72;;;14.33;79.11
16355;BME280;8287;51.644;8.494;2023-03-18T03:42:09;99684.41;;;14.31;79.10
16355;BME280;8287;51.644;8.494;2023-03-18T03:44:36;99694.72;;;14.33;79.24
16355;BME280;8287;51.644;8.494;2023-03-18T03:47:02;99685.25;;;14.35;79.18
16355;BME280;8287;51.644;8.494;2023-03-18T03:49:29;99680.97;;;14.31;79.13
16355;BME280;8287;51.644;8.494;2023-03-18T03:51:55;99686.66;;;14.29;79.49
16355;BME280;8287;51.644;8.494;2023-03-18T03:54:23;99678.13;;;14.24;79.09
16355;BME280;8287;51.644;8.494;2023-03-18T03:56:51;99686.91;;;14.24;79.28
16355;BME280;8287;51.644;8.494;2023-03-18T03:59:18;99690.25;;;14.21;79.55
16355;BME280;8287;51.644;8.494;2023-03-18T04:01:45;99688.03;;;14.23;79.09
16355;BME280;8287;51.644;8.494;2023-03-18T04:04:11;99684.72;;;14.14;79.55
16355;BME280;8287;51.644;8.494;2023-03-18T04:06:38;99685.59;;;14.18;79.47
16355;BME280;8287;51.644;8.494;2023-03-18T04:09:05;99694.03;;;14.20;79.62
16355;BME280;8287;51.644;8.494;2023-03-18T04:11:32;99695.59;;;14.21;79.45
16355;BME280;8287;51.644;8.494;2023-03-18T04:13:59;99690.47;;;14.16;79.28
16355;BME280;8287;51.644;8.494;2023-03-18T04:16:26;99700.13;;;14.21;79.35
16355;BME280;8287;51.644;8.494;2023-03-18T04:18:52;99700.56;;;14.23;79.50
16355;BME280;8287;51.644;8.494;2023-03-18T04:21:19;99707.44;;;14.24;79.57
16355;BME280;8287;51.644;8.494;2023-03-18T04:23:45;99699.81;;;14.22;79.07
16355;BME280;8287;51.644;8.494;2023-03-18T04:26:12;99704.34;;;14.22;79.41
16355;BME280;8287;51.644;8.494;2023-03-18T04:28:40;99704.19;;;14.30;79.52
16355;BME280;8287;51.644;8.494;2023-03-18T04:31:06;99708.66;;;14.26;79.03
16355;BME280;8287;51.644;8.494;2023-03-18T04:33:33;99712.75;;;14.24;79.55
16355;BME280;8287;51.644;8.494;2023-03-18T04:36:00;99703.91;;;14.20;79.74
16355;BME280;8287;51.644;8.494;2023-03-18T04:38:26;99707.69;;;14.19;79.65
16355;BME280;8287;51.644;8.494;2023-03-18T04:40:53;99708.91;;;14.21;79.12
16355;BME280;8287;51.644;8.494;2023-03-18T04:43:20;99722.25;;;14.21;79.36
16355;BME280;8287;51.644;8.494;2023-03-18T04:45:48;99721.53;;;14.24;79.44
16355;BME280;8287;51.644;8.494;2023-03-18T04:48:15;99724.03;;;14.17;79.66
16355;BME280;8287;51.644;8.494;2023-03-18T04:50:41;99732.44;;;14.19;79.52
16355;BME280;8287;51.644;8.494;2023-03-18T04:53:08;99733.22;;;14.20;79.48
16355;BME280;8287;51.644;8.494;2023-03-18T04:55:35;99742.97;;;14.16;79.85
16355;BME280;8287;51.644;8.494;2023-03-18T04:58:02;99739.59;;;14.03;80.20
16355;BME280;8287;51.644;8.494;2023-03-18T05:00:29;99739.38;;;14.08;79.94
16355;BME280;8287;51.644;8.494;2023-03-18T05:02:57;99744.94;;;14.03;79.81
16355;BME280;8287;51.644;8.494;2023-03-18T05:05:23;99744.75;;;13.96;80.00
16355;BME280;8287;51.644;8.494;2023-03-18T05:07:50;99742.09;;;13.96;80.06
16355;BME280;8287;51.644;8.494;2023-03-18T05:10:17;99742.75;;;13.93;80.53
16355;BME280;8287;51.644;8.494;2023-03-18T05:12:44;99739.66;;;13.91;80.51
16355;BME280;8287;51.644;8.494;2023-03-18T05:15:11;99742.13;;;13.84;80.54
16355;BME280;8287;51.644;8.494;2023-03-18T05:17:38;99741.28;;;13.80;80.87
16355;BME280;8287;51.644;8.494;2023-03-18T05:20:08;99737.22;;;13.86;80.86
16355;BME280;8287;51.644;8.494;2023-03-18T05:22:35;99739.03;;;13.82;81.20
16355;BME280;8287;51.644;8.494;2023-03-18T05:25:03;99747.88;;;13.86;80.96
16355;BME280;8287;51.644;8.494;2023-03-18T05:27:30;99745.22;;;13.86;80.85
16355;BME280;8287;51.644;8.494;2023-03-18T05:29:57;99749.88;;;13.89;80.67
16355;BME280;8287;51.644;8.494;2023-03-18T05:32:24;99752.59;;;13.77;80.83
16355;BME280;8287;51.644;8.494;2023-03-18T05:34:50;99750.13;;;13.84;80.85
16355;BME280;8287;51.644;8.494;2023-03-18T05:37:18;99749.38;;;13.84;81.02
16355;BME280;8287;51.644;8.494;2023-03-18T05:39:45;99752.78;;;13.84;80.74
16355;BME280;8287;51.644;8.494;2023-03-18T05:42:12;99751.94;;;13.80;81.45
16355;BME280;8287;51.644;8.494;2023-03-18T05:44:39;99760.34;;;13.82;81.16
16355;BME280;8287;51.644;8.494;2023-03-18T05:47:06;99760.78;;;13.84;80.65
16355;BME280;8287;51.644;8.494;2023-03-18T05:49:34;99764.31;;;13.88;80.79
16355;BME280;8287;51.644;8.494;2023-03-18T05:52:00;99772.75;;;13.90;80.64
16355;BME280;8287;51.644;8.494;2023-03-18T05:54:28;99775.22;;;13.83;81.61
16355;BME280;8287;51.644;8.494;2023-03-18T05:56:55;99770.94;;;13.94;80.77
16355;BME280;8287;51.644;8.494;2023-03-18T05:59:22;99780.84;;;13.94;80.98
16355;BME280;8287;51.644;8.494;2023-03-18T06:01:49;99784.63;;;13.93;81.01
16355;BME280;8287;51.644;8.494;2023-03-18T06:04:17;99780.84;;;13.94;80.71
16355;BME280;8287;51.644;8.494;2023-03-18T06:06:45;99791.34;;;14.02;80.64
16355;BME280;8287;51.644;8.494;2023-03-18T06:09:13;99801.22;;;14.02;80.16
16355;BME280;8287;51.644;8.494;2023-03-18T06:11:41;99791.00;;;14.04;80.49
16355;BME280;8287;51.644;8.494;2023-03-18T06:14:08;99798.59;;;13.90;81.19
16355;BME280;8287;51.644;8.494;2023-03-18T06:16:35;99800.53;;;14.05;80.16
16355;BME280;8287;51.644;8.494;2023-03-18T06:19:03;99809.41;;;14.09;79.81
16355;BME280;8287;51.644;8.494;2023-03-18T06:21:30;99819.28;;;14.08;79.27
16355;BME280;8287;51.644;8.494;2023-03-18T06:23:58;99813.75;;;14.01;79.88
16355;BME280;8287;51.644;8.494;2023-03-18T06:26:25;99807.50;;;14.09;79.45
16355;BME280;8287;51.644;8.494;2023-03-18T06:28:53;99810.59;;;14.11;79.18
16355;BME280;8287;51.644;8.494;2023-03-18T06:31:20;99813.38;;;14.15;78.95
16355;BME280;8287;51.644;8.494;2023-03-18T06:33:47;99811.25;;;14.20;79.17
16355;BME280;8287;51.644;8.494;2023-03-18T06:36:14;99810.50;;;14.20;78.92
16355;BME280;8287;51.644;8.494;2023-03-18T06:38:42;99807.44;;;14.33;78.81
16355;BME280;8287;51.644;8.494;2023-03-18T06:41:09;99817.16;;;14.41;78.44
16355;BME280;8287;51.644;8.494;2023-03-18T06:43:36;99812.38;;;14.47;78.20
16355;BME280;8287;51.644;8.494;2023-03-18T06:46:04;99811.44;;;14.55;77.51
16355;BME280;8287;51.644;8.494;2023-03-18T06:48:31;99812.47;;;14.66;77.38
16355;BME280;8287;51.644;8.494;2023-03-18T06:50:58;99816.34;;;14.68;76.67
16355;BME280;8287;51.644;8.494;2023-03-18T06:53:25;99821.94;;;14.79;76.04
16355;BME280;8287;51.644;8.494;2023-03-18T06:55:53;99819.38;;;14.82;75.63
16355;BME280;8287;51.644;8.494;2023-03-18T06:58:20;99819.25;;;15.75;74.73
16355;BME280;8287;51.644;8.494;2023-03-18T07:00:47;99814.53;;;17.12;67.60
16355;BME280;8287;51.644;8.494;2023-03-18T07:03:15;99807.31;;;17.94;64.37
16355;BME280;8287;51.644;8.494;2023-03-18T07:05:42;99826.25;;;17.26;65.45
16355;BME280;8287;51.644;8.494;2023-03-18T07:08:09;99830.28;;;16.69;67.25
16355;BME280;8287;51.644;8.494;2023-03-18T07:10:36;99836.13;;;16.36;68.98
16355;BME280;8287;51.644;8.494;2023-03-18T07:13:02;99836.78;;;16.11;69.59
16355;BME280;8287;51.644;8.494;2023-03-18T07:15:29;99832.84;;;16.05;70.06
16355;BME280;8287;51.644;8.494;2023-03-18T07:17:56;99837.72;;;15.99;70.30
16355;BME280;8287;51.644;8.494;2023-03-18T07:20:26;99848.72;;;15.98;71.00
16355;BME280;8287;51.644;8.494;2023-03-18T07:22:53;99854.38;;;15.93;70.74
16355;BME280;8287;51.644;8.494;2023-03-18T07:25:19;99851.09;;;15.84;70.96
16355;BME280;8287;51.644;8.494;2023-03-18T07:27:46;99850.25;;;15.80;70.92
16355;BME280;8287;51.644;8.494;2023-03-18T07:30:13;99858.47;;;15.71;71.10
16355;BME280;8287;51.644;8.494;2023-03-18T07:32:40;99869.22;;;15.75;71.91
16355;BME280;8287;51.644;8.494;2023-03-18T07:35:07;99872.34;;;15.77;70.73
16355;BME280;8287;51.644;8.494;2023-03-18T07:37:36;99879.56;;;15.76;70.86
16355;BME280;8287;51.644;8.494;2023-03-18T07:40:05;99875.25;;;15.53;71.71
16355;BME280;8287;51.644;8.494;2023-03-18T07:42:32;99884.34;;;15.67;71.42
16355;BME280;8287;51.644;8.494;2023-03-18T07:44:58;99886.75;;;15.72;71.43
16355;BME280;8287;51.644;8.494;2023-03-18T07:47:25;99886.03;;;15.75;71.34
16355;BME280;8287;51.644;8.494;2023-03-18T07:49:52;99896.41;;;15.61;71.22
16355;BME280;8287;51.644;8.494;2023-03-18T07:52:18;99902.31;;;15.70;72.10
16355;BME280;8287;51.644;8.494;2023-03-18T07:54:46;99894.22;;;15.67;71.67
16355;BME280;8287;51.644;8.494;2023-03-18T07:57:13;99900.88;;;15.73;71.99
16355;BME280;8287;51.644;8.494;2023-03-18T07:59:39;99896.72;;;15.75;72.03
16355;BME280;8287;51.644;8.494;2023-03-18T08:02:06;99899.41;;;15.75;72.08
16355;BME280;8287;51.644;8.494;2023-03-18T08:04:33;99900.78;;;15.69;72.26
16355;BME280;8287;51.644;8.494;2023-03-18T08:07:00;99905.00;;;15.70;71.95
16355;BME280;8287;51.644;8.494;2023-03-18T08:09:27;99903.69;;;15.80;71.61
16355;BME280;8287;51.644;8.494;2023-03-18T08:11:55;99910.25;;;15.67;71.60
16355;BME280;8287;51.644;8.494;2023-03-18T08:14:22;99903.03;;;15.67;70.69
16355;BME280;8287;51.644;8.494;2023-03-18T08:16:48;99909.91;;;15.68;71.77
16355;BME280;8287;51.644;8.494;2023-03-18T08:19:15;99894.47;;;15.77;70.55
16355;BME280;8287;51.644;8.494;2023-03-18T08:21:42;99901.44;;;15.82;71.13
16355;BME280;8287;51.644;8.494;2023-03-18T08:24:09;99899.47;;;15.79;70.60
16355;BME280;8287;51.644;8.494;2023-03-18T08:26:36;99909.47;;;15.82;70.81
16355;BME280;8287;51.644;8.494;2023-03-18T08:29:04;99909.19;;;15.87;71.17
16355;BME280;8287;51.644;8.494;2023-03-18T08:31:31;99908.41;;;15.86;71.01
16355;BME280;8287;51.644;8.494;2023-03-18T08:33:58;99908.50;;;15.90;70.62
16355;BME280;8287;51.644;8.494;2023-03-18T08:36:25;99916.16;;;15.91;70.26
16355;BME280;8287;51.644;8.494;2023-03-18T08:38:53;99925.03;;;15.95;70.65
16355;BME280;8287;51.644;8.494;2023-03-18T08:41:19;99927.22;;;16.09;70.26
16355;BME280;8287;51.644;8.494;2023-03-18T08:43:46;99933.78;;;16.11;70.63
16355;BME280;8287;51.644;8.494;2023-03-18T08:46:14;99930.94;;;16.04;69.36
16355;BME280;8287;51.644;8.494;2023-03-18T08:48:42;99933.41;;;15.94;69.22
16355;BME280;8287;51.644;8.494;2023-03-18T08:51:08;99941.50;;;15.97;68.89
16355;BME280;8287;51.644;8.494;2023-03-18T08:53:35;99946.63;;;15.71;69.83
16355;BME280;8287;51.644;8.494;2023-03-18T08:56:03;99939.88;;;15.93;70.80
16355;BME280;8287;51.644;8.494;2023-03-18T08:58:31;99943.22;;;16.05;69.91
16355;BME280;8287;51.644;8.494;2023-03-18T09:00:58;99945.69;;;16.14;69.35
16355;BME280;8287;51.644;8.494;2023-03-18T09:03:28;99951.41;;;16.31;68.54
16355;BME280;8287;51.644;8.494;2023-03-18T09:05:54;99942.44;;;16.39;68.54
16355;BME280;8287;51.644;8.494;2023-03-18T09:08:22;99948.88;;;16.38;68.02
16355;BME280;8287;51.644;8.494;2023-03-18T09:10:50;99940.59;;;16.43;67.82
16355;BME280;8287;51.644;8.494;2023-03-18T09:13:17;99952.56;;;16.49;67.30
16355;BME280;8287;51.644;8.494;2023-03-18T09:15:46;99949.13;;;16.49;67.14
16355;BME280;8287;51.644;8.494;2023-03-18T09:18:13;99952.16;;;16.47;67.07
16355;BME280;8287;51.644;8.494;2023-03-18T09:20:42;99955.75;;;16.55;67.14
16355;BME280;8287;51.644;8.494;2023-03-18T09:23:10;99945.38;;;16.53;67.08
16355;BME280;8287;51.644;8.494;2023-03-18T09:25:38;99953.41;;;16.72;65.89
16355;BME280;8287;51.644;8.494;2023-03-18T09:28:06;99940.53;;;16.59;66.33
16355;BME280;8287;51.644;8.494;2023-03-18T09:30:33;99957.47;;;16.85;65.51
16355;BME280;8287;51.644;8.494;2023-03-18T09:33:00;99957.63;;;16.92;65.43
16355;BME280;8287;51.644;8.494;2023-03-18T09:35:27;99961.13;;;16.96;63.17
16355;BME280;8287;51.644;8.494;2023-03-18T09:37:56;99962.03;;;17.03;63.38
16355;BME280;8287;51.644;8.494;2023-03-18T09:40:25;99958.44;;;17.15;63.58
16355;BME280;8287;51.644;8.494;2023-03-18T09:43:08;99956.91;;;17.17;63.04
16355;BME280;8287;51.644;8.494;2023-03-18T09:45:45;99958.44;;;17.15;62.05
16355;BME280;8287;51.644;8.494;2023-03-18T09:51:42;99962.19;;;17.33;60.14
16355;BME280;8287;51.644;8.494;2023-03-18T09:54:17;99971.59;;;17.46;60.55
16355;BME280;8287;51.644;8.494;2023-03-18T09:56:47;99967.44;;;17.48;59.73
16355;BME280;8287;51.644;8.494;2023-03-18T09:59:20;99974.59;;;17.41;60.16
16355;BME280;8287;51.644;8.494;2023-03-18T10:01:51;99974.00;;;17.51;60.14
16355;BME280;8287;51.644;8.494;2023-03-18T10:04:21;99971.97;;;17.44;59.32
16355;BME280;8287;51.644;8.494;2023-03-18T10:06:52;99978.19;;;17.29;59.37
16355;BME280;8287;51.644;8.494;2023-03-18T10:09:26;99976.31;;;17.33;60.02
16355;BME280;8287;51.644;8.494;2023-03-18T10:12:00;99978.03;;;17.41;61.38
16355;BME280;8287;51.644;8.494;2023-03-18T10:14:41;99969.38;;;17.51;60.65
16355;BME280;8287;51.644;8.494;2023-03-18T10:17:16;99975.88;;;17.73;60.55
16355;BME280;8287;51.644;8.494;2023-03-18T10:19:47;99981.78;;;17.82;59.33
16355;BME280;8287;51.644;8.494;2023-03-18T10:22:45;99980.41;;;17.95;59.67
16355;BME280;8287;51.644;8.494;2023-03-18T10:25:24;99981.38;;;18.09;59.10
16355;BME280;8287;51.644;8.494;2023-03-18T10:28:20;99975.28;;;18.09;59.52
16355;BME280;8287;51.644;8.494;2023-03-18T10:30:58;99985.47;;;18.26;58.87
16355;BME280;8287;51.644;8.494;2023-03-18T10:33:36;99984.63;;;18.22;58.53
16355;BME280;8287;51.644;8.494;2023-03-18T10:36:08;99985.66;;;18.36;58.66
16355;BME280;8287;51.644;8.494;2023-03-18T10:38:38;99987.63;;;18.43;58.23
16355;BME280;8287;51.644;8.494;2023-03-18T10:41:15;99995.59;;;18.36;57.73
16355;BME280;8287;51.644;8.494;2023-03-18T10:43:44;99993.75;;;18.40;58.89
16355;BME280;8287;51.644;8.494;2023-03-18T10:46:14;99987.28;;;18.44;57.96
16355;BME280;8287;51.644;8.494;2023-03-18T10:48:45;99989.28;;;18.51;58.33
16355;BME280;8287;51.644;8.494;2023-03-18T10:51:16;99991.66;;;18.59;57.02
16355;BME280;8287;51.644;8.494;2023-03-18T10:53:50;99990.66;;;18.71;56.69
16355;BME280;8287;51.644;8.494;2023-03-18T10:56:19;99994.00;;;18.61;56.80
16355;BME280;8287;51.644;8.494;2023-03-18T10:58:46;99984.84;;;18.65;56.52
16355;BME280;8287;51.644;8.494;2023-03-18T11:01:15;99983.91;;;18.51;57.41
16355;BME280;8287;51.644;8.494;2023-03-18T11:03:46;99988.44;;;18.47;56.37
16355;BME280;8287;51.644;8.494;2023-03-18T11:06:16;99992.50;;;18.34;57.05
16355;BME280;8287;51.644;8.494;2023-03-18T11:08:47;99981.44;;;18.39;57.49
16355;BME280;8287;51.644;8.494;2023-03-18T11:11:20;99983.81;;;18.44;57.59
16355;BME280;8287;51.644;8.494;2023-03-18T11:13:52;99978.16;;;18.49;57.89
16355;BME280;8287;51.644;8.494;2023-03-18T11:16:27;99982.63;;;18.71;57.47
16355;BME280;8287;51.644;8.494;2023-03-18T11:18:55;99976.22;;;18.82;56.88
16355;BME280;8287;51.644;8.494;2023-03-18T11:21:24;99981.72;;;18.93;57.41
16355;BME280;8287;51.644;8.494;2023-03-18T11:23:54;99976.47;;;19.03;56.02
16355;BME280;8287;51.644;8.494;2023-03-18T11:26:53;99979.00;;;19.22;56.24
16355;BME280;8287;51.644;8.494;2023-03-18T11:29:22;99983.88;;;19.53;56.59
16355;BME280;8287;51.644;8.494;2023-03-18T11:31:53;99972.38;;;19.56;55.49
16355;BME280;8287;51.644;8.494;2023-03-18T11:34:23;99975.50;;;19.62;55.58
16355;BME280;8287;51.644;8.494;2023-03-18T11:36:56;99970.94;;;19.66;54.59
16355;BME280;8287;51.644;8.494;2023-03-18T11:39:27;99968.72;;;19.78;54.88
16355;BME280;8287;51.644;8.494;2023-03-18T11:41:57;99974.94;;;19.89;54.59
16355;BME280;8287;51.644;8.494;2023-03-18T11:44:27;99968.44;;;19.94;52.82
16355;BME280;8287;51.644;8.494;2023-03-18T11:47:00;99968.72;;;19.82;52.86
16355;BME280;8287;51.644;8.494;2023-03-18T11:49:28;99962.56;;;19.78;53.34
16355;BME280;8287;51.644;8.494;2023-03-18T11:52:03;99961.47;;;19.86;54.60
16355;BME280;8287;51.644;8.494;2023-03-18T11:55:03;99955.84;;;20.05;54.97
16355;BME280;8287;51.644;8.494;2023-03-18T11:57:46;99956.63;;;20.05;52.65
16355;BME280;8287;51.644;8.494;2023-03-18T12:00:27;99949.38;;;20.13;53.19
16355;BME280;8287;51.644;8.494;2023-03-18T12:03:21;99953.25;;;20.19;52.74
16355;BME280;8287;51.644;8.494;2023-03-18T12:06:00;99959.09;;;20.35;52.13
16355;BME280;8287;51.644;8.494;2023-03-18T12:08:45;99952.19;;;20.34;52.29
16355;BME280;8287;51.644;8.494;2023-03-18T12:11:18;99953.72;;;20.35;52.24
16355;BME280;8287;51.644;8.494;2023-03-18T12:13:59;99951.44;;;20.43;51.41
16355;BME280;8287;51.644;8.494;2023-03-18T12:16:38;99941.47;;;20.51;51.88
16355;BME280;8287;51.644;8.494;2023-03-18T12:19:26;99945.41;;;20.81;51.61
16355;BME280;8287;51.644;8.494;2023-03-18T12:22:20;99947.81;;;20.97;51.53
16355;BME280;8287;51.644;8.494;2023-03-18T12:25:02;99951.59;;;20.85;50.34
16355;BME280;8287;51.644;8.494;2023-03-18T12:27:36;99955.47;;;20.95;51.19
16355;BME280;8287;51.644;8.494;2023-03-18T12:30:18;99948.97;;;21.13;49.98
16355;BME280;8287;51.644;8.494;2023-03-18T12:32:56;99953.19;;;21.00;48.76
16355;BME280;8287;51.644;8.494;2023-03-18T12:35:39;99946.66;;;21.15;50.74
16355;BME280;8287;51.644;8.494;2023-03-18T12:38:23;99940.91;;;21.31;49.63
16355;BME280;8287;51.644;8.494;2023-03-18T12:41:04;99939.38;;;21.30;49.00
16355;BME280;8287;51.644;8.494;2023-03-18T12:43:43;99939.38;;;21.40;50.48
16355;BME280;8287;51.644;8.494;2023-03-18T12:46:22;99943.25;;;21.67;49.08
16355;BME280;8287;51.644;8.494;2023-03-18T12:48:54;99944.38;;;21.77;47.75
16355;BME280;8287;51.644;8.494;2023-03-18T12:51:26;99941.69;;;21.77;48.31
16355;BME280;8287;51.644;8.494;2023-03-18T12:53:57;99932.06;;;21.79;48.11
16355;BME280;8287;51.644;8.494;2023-03-18T12:56:28;99932.81;;;21.62;49.21
16355;BME280;8287;51.644;8.494;2023-03-18T12:59:02;99922.44;;;21.78;49.02
16355;BME280;8287;51.644;8.494;2023-03-18T13:01:36;99930.09;;;22.04;49.31
16355;BME280;8287;51.644;8.494;2023-03-18T13:04:07;99930.47;;;20.87;49.76
16355;BME280;8287;51.644;8.494;2023-03-18T13:06:39;99923.09;;;20.77;52.31
16355;BME280;8287;51.644;8.494;2023-03-18T13:09:12;99924.56;;;20.57;51.45
16355;BME280;8287;51.644;8.494;2023-03-18T13:11:53;99923.88;;;20.74;50.74
16355;BME280;8287;51.644;8.494;2023-03-18T13:14:26;99921.28;;;21.09;49.81
16355;BME280;8287;51.644;8.494;2023-03-18T13:16:58;99925.88;;;21.37;50.09
16355;BME280;8287;51.644;8.494;2023-03-18T13:19:26;99934.72;;;20.95;52.94
16355;BME280;8287;51.644;8.494;2023-03-18T13:22:12;99927.41;;;21.45;50.95
16355;BME280;8287;51.644;8.494;2023-03-18T13:24:50;99926.59;;;22.07;50.09
16355;BME280;8287;51.644;8.494;2023-03-18T13:27:33;99926.59;;;22.04;48.50